sensor_id;sensor_type;location;lat;lon;timestamp;pressure;altitude;pressure_sealevel;temperature
20848;BMP180;10584;50.854;12.902;2023-04-05T00:05:16;98769.00;;;-1.50
20848;BMP180;10584;50.854;12.902;2023-04-05T00:10:49;98753.00;;;-1.50
20848;BMP180;10584;50.854;12.902;2023-04-05T00:16:11;98757.00;;;-1.40
20848;BMP180;10584;50.854;12.902;2023-04-05T00:21:33;98755.00;;;-1.30
20848;BMP180;10584;50.854;12.902;2023-04-05T00:26:54;98757.00;;;-1.30
20848;BMP180;10584;50.854;12.902;2023-04-05T00:32:16;98753.00;;;-1.20
20848;BMP180;10584;50.854;12.902;2023-04-05T00:37:38;98746.00;;;-1.20
20848;BMP180;10584;50.854;12.902;2023-04-05T00:42:59;98746.00;;;-1.10
20848;BMP180;10584;50.854;12.902;2023-04-05T00:48:21;98741.00;;;-1.00
20848;BMP180;10584;50.854;12.902;2023-04-05T00:53:42;98733.00;;;-1.00
20848;BMP180;10584;50.854;12.902;2023-04-05T00:59:04;98738.00;;;-0.80
20848;BMP180;10584;50.854;12.902;2023-04-05T01:04:27;98734.00;;;-0.70
20848;BMP180;10584;50.854;12.902;2023-04-05T01:09:59;98731.00;;;-0.70
20848;BMP180;10584;50.854;12.902;2023-04-05T01:15:21;98715.00;;;-0.70
20848;BMP180;10584;50.854;12.902;2023-04-05T01:20:51;98709.00;;;-0.60
20848;BMP180;10584;50.854;12.902;2023-04-05T01:31:50;98715.00;;;-0.60
20848;BMP180;10584;50.854;12.902;2023-04-05T01:37:19;98710.00;;;-0.50
20848;BMP180;10584;50.854;12.902;2023-04-05T01:42:44;98703.00;;;-0.40
20848;BMP180;10584;50.854;12.902;2023-04-05T01:48:08;98697.00;;;-0.50
20848;BMP180;10584;50.854;12.902;2023-04-05T01:53:30;98697.00;;;-0.40
20848;BMP180;10584;50.854;12.902;2023-04-05T01:58:52;98692.00;;;-0.30
20848;BMP180;10584;50.854;12.902;2023-04-05T02:04:13;98687.00;;;-0.50
20848;BMP180;10584;50.854;12.902;2023-04-05T02:09:35;98686.00;;;-0.40
20848;BMP180;10584;50.854;12.902;2023-04-05T02:14:56;98690.00;;;-0.40
20848;BMP180;10584;50.854;12.902;2023-04-05T02:20:19;98690.00;;;-0.40
20848;BMP180;10584;50.854;12.902;2023-04-05T02:25:41;98685.00;;;-0.40
20848;BMP180;10584;50.854;12.902;2023-04-05T02:31:08;98676.00;;;-0.20
20848;BMP180;10584;50.854;12.902;2023-04-05T02:36:32;98681.00;;;-0.20
20848;BMP180;10584;50.854;12.902;2023-04-05T02:41:56;98682.00;;;-0.10
20848;BMP180;10584;50.854;12.902;2023-04-05T02:47:18;98672.00;;;-0.10
20848;BMP180;10584;50.854;12.902;2023-04-05T02:52:48;98667.00;;;-0.20
20848;BMP180;10584;50.854;12.902;2023-04-05T02:58:12;98657.00;;;-0.20
20848;BMP180;10584;50.854;12.902;2023-04-05T03:03:38;98667.00;;;-0.20
20848;BMP180;10584;50.854;12.902;2023-04-05T03:09:02;98680.00;;;-0.10
20848;BMP180;10584;50.854;12.902;2023-04-05T03:14:24;98658.00;;;-0.10
20848;BMP180;10584;50.854;12.902;2023-04-05T03:19:45;98664.00;;;-0.10
20848;BMP180;10584;50.854;12.902;2023-04-05T03:25:14;98660.00;;;0.00
20848;BMP180;10584;50.854;12.902;2023-04-05T03:30:41;98662.00;;;-0.10
20848;BMP180;10584;50.854;12.902;2023-04-05T03:36:13;98658.00;;;-0.10
20848;BMP180;10584;50.854;12.902;2023-04-05T03:41:40;98664.00;;;-0.10
20848;BMP180;10584;50.854;12.902;2023-04-05T03:47:03;98670.00;;;0.00
20848;BMP180;10584;50.854;12.902;2023-04-05T03:52:25;98653.00;;;0.00
20848;BMP180;10584;50.854;12.902;2023-04-05T03:57:47;98674.00;;;0.00
20848;BMP180;10584;50.854;12.902;2023-04-05T04:03:17;98680.00;;;0.00
20848;BMP180;10584;50.854;12.902;2023-04-05T04:08:42;98669.00;;;0.00
20848;BMP180;10584;50.854;12.902;2023-04-05T04:14:03;98681.00;;;0.00
20848;BMP180;10584;50.854;12.902;2023-04-05T04:19:31;98665.00;;;0.00
20848;BMP180;10584;50.854;12.902;2023-04-05T04:25:19;98663.00;;;0.00
20848;BMP180;10584;50.854;12.902;2023-04-05T04:30:55;98671.00;;;-0.10
20848;BMP180;10584;50.854;12.902;2023-04-05T04:36:31;98672.00;;;-0.10
20848;BMP180;10584;50.854;12.902;2023-04-05T04:42:18;98675.00;;;0.00
20848;BMP180;10584;50.854;12.902;2023-04-05T04:47:47;98684.00;;;0.00
20848;BMP180;10584;50.854;12.902;2023-04-05T04:53:13;98679.00;;;-0.10
20848;BMP180;10584;50.854;12.902;2023-04-05T04:58:37;98675.00;;;-0.10
20848;BMP180;10584;50.854;12.902;2023-04-05T05:04:02;98681.00;;;0.00
20848;BMP180;10584;50.854;12.902;2023-04-05T05:09:28;98677.00;;;-0.10
20848;BMP180;10584;50.854;12.902;2023-04-05T05:14:52;98679.00;;;-0.10
20848;BMP180;10584;50.854;12.902;2023-04-05T05:20:16;98665.00;;;0.00
20848;BMP180;10584;50.854;12.902;2023-04-05T05:25:39;98675.00;;;-0.10
20848;BMP180;10584;50.854;12.902;2023-04-05T05:31:02;98678.00;;;-0.10
20848;BMP180;10584;50.854;12.902;2023-04-05T05:36:27;98670.00;;;-0.10
20848;BMP180;10584;50.854;12.902;2023-04-05T05:41:49;98672.00;;;0.00
20848;BMP180;10584;50.854;12.902;2023-04-05T05:47:10;98681.00;;;0.10
20848;BMP180;10584;50.854;12.902;2023-04-05T05:52:32;98667.00;;;0.20
20848;BMP180;10584;50.854;12.902;2023-04-05T05:57:57;98666.00;;;0.20
20848;BMP180;10584;50.854;12.902;2023-04-05T06:03:18;98666.00;;;0.30
20848;BMP180;10584;50.854;12.902;2023-04-05T06:08:40;98673.00;;;0.40
20848;BMP180;10584;50.854;12.902;2023-04-05T06:14:01;98666.00;;;0.50
20848;BMP180;10584;50.854;12.902;2023-04-05T06:19:23;98665.00;;;0.40
20848;BMP180;10584;50.854;12.902;2023-04-05T06:24:44;98671.00;;;0.60
20848;BMP180;10584;50.854;12.902;2023-04-05T06:30:06;98669.00;;;0.60
20848;BMP180;10584;50.854;12.902;2023-04-05T06:35:28;98686.00;;;0.60
20848;BMP180;10584;50.854;12.902;2023-04-05T06:40:49;98658.00;;;0.80
20848;BMP180;10584;50.854;12.902;2023-04-05T06:46:11;98664.00;;;0.80
20848;BMP180;10584;50.854;12.902;2023-04-05T06:51:33;98668.00;;;1.00
20848;BMP180;10584;50.854;12.902;2023-04-05T06:56:55;98665.00;;;1.00
20848;BMP180;10584;50.854;12.902;2023-04-05T07:02:20;98675.00;;;1.20
20848;BMP180;10584;50.854;12.902;2023-04-05T07:07:42;98659.00;;;1.30
20848;BMP180;10584;50.854;12.902;2023-04-05T07:13:04;98671.00;;;1.50
20848;BMP180;10584;50.854;12.902;2023-04-05T07:18:26;98656.00;;;1.60
20848;BMP180;10584;50.854;12.902;2023-04-05T07:23:48;98653.00;;;2.00
20848;BMP180;10584;50.854;12.902;2023-04-05T07:29:10;98651.00;;;2.50
20848;BMP180;10584;50.854;12.902;2023-04-05T07:34:32;98649.00;;;2.80
20848;BMP180;10584;50.854;12.902;2023-04-05T07:39:54;98646.00;;;3.10
20848;BMP180;10584;50.854;12.902;2023-04-05T07:45:15;98655.00;;;3.40
20848;BMP180;10584;50.854;12.902;2023-04-05T07:50:37;98652.00;;;3.70
20848;BMP180;10584;50.854;12.902;2023-04-05T07:56:14;98661.00;;;3.90
20848;BMP180;10584;50.854;12.902;2023-04-05T08:01:35;98668.00;;;4.20
20848;BMP180;10584;50.854;12.902;2023-04-05T08:06:57;98646.00;;;4.40
20848;BMP180;10584;50.854;12.902;2023-04-05T08:12:18;98652.00;;;4.60
20848;BMP180;10584;50.854;12.902;2023-04-05T08:17:39;98653.00;;;4.90
20848;BMP180;10584;50.854;12.902;2023-04-05T08:23:01;98646.00;;;5.10
20848;BMP180;10584;50.854;12.902;2023-04-05T08:28:23;98637.00;;;4.70
20848;BMP180;10584;50.854;12.902;2023-04-05T08:33:44;98644.00;;;5.10
20848;BMP180;10584;50.854;12.902;2023-04-05T08:39:06;98652.00;;;5.20
20848;BMP180;10584;50.854;12.902;2023-04-05T08:44:30;98648.00;;;4.70
20848;BMP180;10584;50.854;12.902;2023-04-05T08:49:51;98647.00;;;4.80
20848;BMP180;10584;50.854;12.902;2023-04-05T08:55:13;98653.00;;;4.50
20848;BMP180;10584;50.854;12.902;2023-04-05T09:00:35;98650.00;;;4.70
20848;BMP180;10584;50.854;12.902;2023-04-05T09:05:58;98641.00;;;5.00
20848;BMP180;10584;50.854;12.902;2023-04-05T09:11:23;98649.00;;;5.20
20848;BMP180;10584;50.854;12.902;2023-04-05T09:16:45;98657.00;;;5.30
20848;BMP180;10584;50.854;12.902;2023-04-05T09:22:07;98656.00;;;5.10
20848;BMP180;10584;50.854;12.902;2023-04-05T09:27:33;98648.00;;;4.90
20848;BMP180;10584;50.854;12.902;2023-04-05T09:32:55;98657.00;;;5.10
20848;BMP180;10584;50.854;12.902;2023-04-05T09:38:17;98656.00;;;5.10
20848;BMP180;10584;50.854;12.902;2023-04-05T09:43:40;98649.00;;;5.00
20848;BMP180;10584;50.854;12.902;2023-04-05T09:49:02;98651.00;;;4.80
20848;BMP180;10584;50.854;12.902;2023-04-05T09:54:24;98650.00;;;4.90
20848;BMP180;10584;50.854;12.902;2023-04-05T09:59:46;98646.00;;;5.00
20848;BMP180;10584;50.854;12.902;2023-04-05T10:05:09;98640.00;;;5.00
20848;BMP180;10584;50.854;12.902;2023-04-05T10:10:42;98646.00;;;5.10
20848;BMP180;10584;50.854;12.902;2023-04-05T10:16:10;98637.00;;;5.20
20848;BMP180;10584;50.854;12.902;2023-04-05T10:21:35;98634.00;;;5.60
20848;BMP180;10584;50.854;12.902;2023-04-05T10:27:22;98631.00;;;5.90
20848;BMP180;10584;50.854;12.902;2023-04-05T10:33:10;98631.00;;;6.00
20848;BMP180;10584;50.854;12.902;2023-04-05T10:44:33;98625.00;;;6.40
20848;BMP180;10584;50.854;12.902;2023-04-05T10:49:59;98627.00;;;6.30
20848;BMP180;10584;50.854;12.902;2023-04-05T10:55:25;98615.00;;;6.30
20848;BMP180;10584;50.854;12.902;2023-04-05T11:00:49;98613.00;;;6.30
20848;BMP180;10584;50.854;12.902;2023-04-05T11:06:23;98614.00;;;6.30
20848;BMP180;10584;50.854;12.902;2023-04-05T11:11:47;98616.00;;;6.20
20848;BMP180;10584;50.854;12.902;2023-04-05T11:17:24;98612.00;;;6.10
20848;BMP180;10584;50.854;12.902;2023-04-05T11:22:53;98610.00;;;6.10
20848;BMP180;10584;50.854;12.902;2023-04-05T11:28:34;98613.00;;;6.20
20848;BMP180;10584;50.854;12.902;2023-04-05T11:34:08;98613.00;;;6.00
20848;BMP180;10584;50.854;12.902;2023-04-05T11:39:30;98601.00;;;6.10
20848;BMP180;10584;50.854;12.902;2023-04-05T11:44:52;98600.00;;;6.10
20848;BMP180;10584;50.854;12.902;2023-04-05T11:50:14;98602.00;;;6.20
20848;BMP180;10584;50.854;12.902;2023-04-05T11:55:44;98603.00;;;6.20
20848;BMP180;10584;50.854;12.902;2023-04-05T12:01:06;98593.00;;;6.20
20848;BMP180;10584;50.854;12.902;2023-04-05T12:06:28;98590.00;;;6.60
20848;BMP180;10584;50.854;12.902;2023-04-05T12:11:53;98589.00;;;7.10
20848;BMP180;10584;50.854;12.902;2023-04-05T12:17:15;98583.00;;;7.30
20848;BMP180;10584;50.854;12.902;2023-04-05T12:22:37;98588.00;;;7.00
20848;BMP180;10584;50.854;12.902;2023-04-05T12:28:04;98577.00;;;7.00
20848;BMP180;10584;50.854;12.902;2023-04-05T12:33:33;98577.00;;;6.70
20848;BMP180;10584;50.854;12.902;2023-04-05T12:38:57;98573.00;;;6.60
20848;BMP180;10584;50.854;12.902;2023-04-05T12:44:29;98562.00;;;6.50
20848;BMP180;10584;50.854;12.902;2023-04-05T12:49:51;98567.00;;;6.70
20848;BMP180;10584;50.854;12.902;2023-04-05T12:55:15;98564.00;;;6.60
20848;BMP180;10584;50.854;12.902;2023-04-05T13:00:36;98569.00;;;6.50
20848;BMP180;10584;50.854;12.902;2023-04-05T13:05:57;98566.00;;;6.70
20848;BMP180;10584;50.854;12.902;2023-04-05T13:11:19;98567.00;;;6.60
20848;BMP180;10584;50.854;12.902;2023-04-05T13:16:40;98562.00;;;6.60
20848;BMP180;10584;50.854;12.902;2023-04-05T13:22:02;98554.00;;;6.50
20848;BMP180;10584;50.854;12.902;2023-04-05T13:27:23;98556.00;;;6.50
20848;BMP180;10584;50.854;12.902;2023-04-05T13:32:45;98554.00;;;6.40
20848;BMP180;10584;50.854;12.902;2023-04-05T13:38:08;98545.00;;;6.20
20848;BMP180;10584;50.854;12.902;2023-04-05T13:43:30;98542.00;;;6.10
20848;BMP180;10584;50.854;12.902;2023-04-05T13:48:51;98539.00;;;6.10
20848;BMP180;10584;50.854;12.902;2023-04-05T13:54:13;98540.00;;;6.10
20848;BMP180;10584;50.854;12.902;2023-04-05T13:59:34;98530.00;;;6.10
20848;BMP180;10584;50.854;12.902;2023-04-05T14:04:56;98538.00;;;6.10
20848;BMP180;10584;50.854;12.902;2023-04-05T14:10:17;98518.00;;;6.10
20848;BMP180;10584;50.854;12.902;2023-04-05T14:15:41;98518.00;;;6.60
20848;BMP180;10584;50.854;12.902;2023-04-05T14:21:04;98508.00;;;7.00
20848;BMP180;10584;50.854;12.902;2023-04-05T14:26:26;98501.00;;;7.40
20848;BMP180;10584;50.854;12.902;2023-04-05T14:31:47;98509.00;;;7.50
20848;BMP180;10584;50.854;12.902;2023-04-05T14:37:09;98496.00;;;7.40
20848;BMP180;10584;50.854;12.902;2023-04-05T14:42:31;98497.00;;;7.50
20848;BMP180;10584;50.854;12.902;2023-04-05T14:48:09;98501.00;;;7.50
20848;BMP180;10584;50.854;12.902;2023-04-05T14:53:30;98497.00;;;7.50
20848;BMP180;10584;50.854;12.902;2023-04-05T14:58:51;98488.00;;;7.50
20848;BMP180;10584;50.854;12.902;2023-04-05T15:04:13;98479.00;;;7.50
20848;BMP180;10584;50.854;12.902;2023-04-05T15:09:34;98488.00;;;7.70
20848;BMP180;10584;50.854;12.902;2023-04-05T15:14:57;98485.00;;;7.70
20848;BMP180;10584;50.854;12.902;2023-04-05T15:20:18;98481.00;;;7.80
20848;BMP180;10584;50.854;12.902;2023-04-05T15:25:40;98469.00;;;7.90
20848;BMP180;10584;50.854;12.902;2023-04-05T15:31:01;98471.00;;;8.10
20848;BMP180;10584;50.854;12.902;2023-04-05T15:36:23;98477.00;;;8.10
20848;BMP180;10584;50.854;12.902;2023-04-05T15:41:48;98473.00;;;8.30
20848;BMP180;10584;50.854;12.902;2023-04-05T15:47:09;98479.00;;;8.10
20848;BMP180;10584;50.854;12.902;2023-04-05T15:52:32;98476.00;;;7.90
20848;BMP180;10584;50.854;12.902;2023-04-05T15:57:53;98475.00;;;7.60
20848;BMP180;10584;50.854;12.902;2023-04-05T16:03:15;98481.00;;;7.10
20848;BMP180;10584;50.854;12.902;2023-04-05T16:08:37;98477.00;;;7.00
20848;BMP180;10584;50.854;12.902;2023-04-05T16:13:58;98472.00;;;7.00
20848;BMP180;10584;50.854;12.902;2023-04-05T16:19:20;98476.00;;;7.00
20848;BMP180;10584;50.854;12.902;2023-04-05T16:24:42;98475.00;;;7.10
20848;BMP180;10584;50.854;12.902;2023-04-05T16:30:04;98466.00;;;7.30
20848;BMP180;10584;50.854;12.902;2023-04-05T16:35:26;98465.00;;;7.40
20848;BMP180;10584;50.854;12.902;2023-04-05T16:40:48;98474.00;;;7.50
20848;BMP180;10584;50.854;12.902;2023-04-05T16:46:09;98473.00;;;7.40
20848;BMP180;10584;50.854;12.902;2023-04-05T16:51:33;98472.00;;;7.50
20848;BMP180;10584;50.854;12.902;2023-04-05T16:56:56;98468.00;;;7.50
20848;BMP180;10584;50.854;12.902;2023-04-05T17:02:18;98477.00;;;7.30
20848;BMP180;10584;50.854;12.902;2023-04-05T17:07:39;98473.00;;;7.20
20848;BMP180;10584;50.854;12.902;2023-04-05T17:13:01;98475.00;;;7.00
20848;BMP180;10584;50.854;12.902;2023-04-05T17:18:23;98478.00;;;6.70
20848;BMP180;10584;50.854;12.902;2023-04-05T17:23:44;98484.00;;;6.60
20848;BMP180;10584;50.854;12.902;2023-04-05T17:29:06;98489.00;;;6.40
20848;BMP180;10584;50.854;12.902;2023-04-05T17:34:27;98479.00;;;6.30
20848;BMP180;10584;50.854;12.902;2023-04-05T17:39:49;98483.00;;;6.10
20848;BMP180;10584;50.854;12.902;2023-04-05T17:45:11;98496.00;;;6.10
20848;BMP180;10584;50.854;12.902;2023-04-05T17:50:32;98499.00;;;6.00
20848;BMP180;10584;50.854;12.902;2023-04-05T17:55:55;98489.00;;;5.90
20848;BMP180;10584;50.854;12.902;2023-04-05T18:01:17;98503.00;;;5.80
20848;BMP180;10584;50.854;12.902;2023-04-05T18:06:38;98498.00;;;5.60
20848;BMP180;10584;50.854;12.902;2023-04-05T18:11:59;98508.00;;;5.50
20848;BMP180;10584;50.854;12.902;2023-04-05T18:17:22;98513.00;;;5.30
20848;BMP180;10584;50.854;12.902;2023-04-05T18:22:43;98514.00;;;5.20
20848;BMP180;10584;50.854;12.902;2023-04-05T18:28:05;98530.00;;;5.10
20848;BMP180;10584;50.854;12.902;2023-04-05T18:33:42;98519.00;;;5.00
20848;BMP180;10584;50.854;12.902;2023-04-05T18:39:03;98528.00;;;4.80
20848;BMP180;10584;50.854;12.902;2023-04-05T18:44:24;98541.00;;;4.60
20848;BMP180;10584;50.854;12.902;2023-04-05T18:49:46;98535.00;;;4.50
20848;BMP180;10584;50.854;12.902;2023-04-05T18:55:08;98539.00;;;4.40
20848;BMP180;10584;50.854;12.902;2023-04-05T19:00:29;98541.00;;;4.30
20848;BMP180;10584;50.854;12.902;2023-04-05T19:05:52;98543.00;;;4.10
20848;BMP180;10584;50.854;12.902;2023-04-05T19:11:13;98552.00;;;3.90
20848;BMP180;10584;50.854;12.902;2023-04-05T19:16:35;98544.00;;;3.80
20848;BMP180;10584;50.854;12.902;2023-04-05T19:21:57;98546.00;;;3.60
20848;BMP180;10584;50.854;12.902;2023-04-05T19:27:18;98557.00;;;3.50
20848;BMP180;10584;50.854;12.902;2023-04-05T19:32:40;98545.00;;;3.30
20848;BMP180;10584;50.854;12.902;2023-04-05T19:38:02;98535.00;;;3.20
20848;BMP180;10584;50.854;12.902;2023-04-05T19:43:25;98541.00;;;3.10
20848;BMP180;10584;50.854;12.902;2023-04-05T19:48:47;98544.00;;;3.00
20848;BMP180;10584;50.854;12.902;2023-04-05T19:54:10;98531.00;;;2.80
20848;BMP180;10584;50.854;12.902;2023-04-05T19:59:37;98536.00;;;2.70
20848;BMP180;10584;50.854;12.902;2023-04-05T20:04:58;98530.00;;;2.50
20848;BMP180;10584;50.854;12.902;2023-04-05T20:10:41;98537.00;;;2.40
20848;BMP180;10584;50.854;12.902;2023-04-05T20:16:03;98526.00;;;2.20
20848;BMP180;10584;50.854;12.902;2023-04-05T20:21:25;98528.00;;;2.00
20848;BMP180;10584;50.854;12.902;2023-04-05T20:26:47;98520.00;;;1.90
20848;BMP180;10584;50.854;12.902;2023-04-05T20:32:09;98525.00;;;1.70
20848;BMP180;10584;50.854;12.902;2023-04-05T20:37:31;98522.00;;;1.60
20848;BMP180;10584;50.854;12.902;2023-04-05T20:42:52;98513.00;;;1.40
20848;BMP180;10584;50.854;12.902;2023-04-05T20:48:13;98508.00;;;1.30
20848;BMP180;10584;50.854;12.902;2023-04-05T20:53:36;98504.00;;;1.20
20848;BMP180;10584;50.854;12.902;2023-04-05T20:58:58;98495.00;;;1.10
20848;BMP180;10584;50.854;12.902;2023-04-05T21:04:19;98500.00;;;1.00
20848;BMP180;10584;50.854;12.902;2023-04-05T21:09:41;98500.00;;;0.90
20848;BMP180;10584;50.854;12.902;2023-04-05T21:15:02;98492.00;;;0.80
20848;BMP180;10584;50.854;12.902;2023-04-05T21:20:29;98495.00;;;0.80
20848;BMP180;10584;50.854;12.902;2023-04-05T21:25:51;98492.00;;;0.70
20848;BMP180;10584;50.854;12.902;2023-04-05T21:31:12;98487.00;;;0.60
20848;BMP180;10584;50.854;12.902;2023-04-05T21:36:34;98483.00;;;0.60
20848;BMP180;10584;50.854;12.902;2023-04-05T21:41:55;98482.00;;;0.50
20848;BMP180;10584;50.854;12.902;2023-04-05T21:47:17;98479.00;;;0.50
20848;BMP180;10584;50.854;12.902;2023-04-05T21:52:39;98480.00;;;0.50
20848;BMP180;10584;50.854;12.902;2023-04-05T21:58:00;98469.00;;;0.50
20848;BMP180;10584;50.854;12.902;2023-04-05T22:03:22;98469.00;;;0.50
20848;BMP180;10584;50.854;12.902;2023-04-05T22:08:44;98470.00;;;0.60
20848;BMP180;10584;50.854;12.902;2023-04-05T22:14:05;98469.00;;;0.60
20848;BMP180;10584;50.854;12.902;2023-04-05T22:19:27;98456.00;;;0.60
20848;BMP180;10584;50.854;12.902;2023-04-05T22:24:48;98457.00;;;0.70
20848;BMP180;10584;50.854;12.902;2023-04-05T22:30:10;98469.00;;;0.70
20848;BMP180;10584;50.854;12.902;2023-04-05T22:35:31;98467.00;;;0.80
20848;BMP180;10584;50.854;12.902;2023-04-05T22:40:52;98456.00;;;0.80
20848;BMP180;10584;50.854;12.902;2023-04-05T22:46:14;98461.00;;;0.80
20848;BMP180;10584;50.854;12.902;2023-04-05T22:51:36;98463.00;;;0.90
20848;BMP180;10584;50.854;12.902;2023-04-05T22:56:57;98454.00;;;1.00
20848;BMP180;10584;50.854;12.902;2023-04-05T23:02:21;98459.00;;;1.00
20848;BMP180;10584;50.854;12.902;2023-04-05T23:07:44;98445.00;;;1.00
20848;BMP180;10584;50.854;12.902;2023-04-05T23:13:06;98458.00;;;1.00
20848;BMP180;10584;50.854;12.902;2023-04-05T23:18:27;98449.00;;;1.00
20848;BMP180;10584;50.854;12.902;2023-04-05T23:23:49;98450.00;;;1.00
20848;BMP180;10584;50.854;12.902;2023-04-05T23:29:10;98438.00;;;1.00
20848;BMP180;10584;50.854;12.902;2023-04-05T23:34:32;98443.00;;;1.00
20848;BMP180;10584;50.854;12.902;2023-04-05T23:39:53;98438.00;;;1.00
20848;BMP180;10584;50.854;12.902;2023-04-05T23:45:15;98435.00;;;1.00
20848;BMP180;10584;50.854;12.902;2023-04-05T23:50:36;98438.00;;;1.00
20848;BMP180;10584;50.854;12.902;2023-04-05T23:55:58;98432.00;;;1.00
